createdAt,value
2019-03-29T00:00:22.767Z,9.60
2019-03-29T00:02:51.221Z,8.10
2019-03-29T00:05:19.713Z,11.37
2019-03-29T00:07:48.154Z,8.83
2019-03-29T00:10:16.625Z,10.53
2019-03-29T00:12:45.103Z,10.90
2019-03-29T00:15:13.549Z,9.27
2019-03-29T00:17:42.392Z,10.13
2019-03-29T00:20:11.368Z,9.93
2019-03-29T00:22:40.150Z,9.33
2019-03-29T00:25:08.713Z,9.37
2019-03-29T00:27:37.175Z,10.30
2019-03-29T00:30:06.408Z,9.27
2019-03-29T00:32:34.870Z,9.30
2019-03-29T00:35:03.524Z,9.57
2019-03-29T00:37:31.985Z,9.17
2019-03-29T00:40:00.438Z,10.03
2019-03-29T00:42:28.915Z,10.40
2019-03-29T00:44:57.376Z,8.93
2019-03-29T00:47:25.856Z,9.47
2019-03-29T00:49:54.335Z,10.33
2019-03-29T00:52:22.821Z,11.60
2019-03-29T00:54:51.261Z,9.40
2019-03-29T00:57:20.036Z,10.43
2019-03-29T00:59:48.516Z,10.03
2019-03-29T01:02:16.969Z,12.10
2019-03-29T01:04:45.784Z,12.20
2019-03-29T01:07:14.571Z,11.93
2019-03-29T01:09:43.049Z,11.47
2019-03-29T01:12:11.869Z,11.17
2019-03-29T01:14:40.389Z,11.70
2019-03-29T01:17:08.865Z,11.30
2019-03-29T01:19:37.342Z,12.73
2019-03-29T01:22:06.029Z,10.50
2019-03-29T01:24:34.738Z,11.20
2019-03-29T01:27:03.559Z,12.57
2019-03-29T01:29:32.111Z,11.73
2019-03-29T01:32:00.924Z,13.87
2019-03-29T01:34:29.413Z,11.00
2019-03-29T01:36:57.891Z,11.90
2019-03-29T01:39:26.363Z,11.93
2019-03-29T01:41:54.843Z,12.17
2019-03-29T01:44:23.321Z,12.23
2019-03-29T01:46:51.803Z,11.13
2019-03-29T01:49:20.342Z,11.67
2019-03-29T01:51:48.949Z,12.53
2019-03-29T01:54:17.420Z,13.77
2019-03-29T01:56:46.042Z,13.43
2019-03-29T01:59:14.613Z,11.73
2019-03-29T02:01:43.095Z,13.03
2019-03-29T02:04:11.917Z,13.23
2019-03-29T02:06:40.443Z,12.60
2019-03-29T02:09:08.927Z,12.63
2019-03-29T02:11:37.374Z,12.53
2019-03-29T02:14:05.869Z,12.77
2019-03-29T02:16:34.382Z,14.13
2019-03-29T02:19:02.863Z,13.40
2019-03-29T02:21:31.598Z,14.70
2019-03-29T02:24:00.080Z,13.93
2019-03-29T02:26:28.611Z,14.57
2019-03-29T02:28:57.165Z,13.50
2019-03-29T02:31:26.394Z,14.37
2019-03-29T02:33:55.934Z,14.00
2019-03-29T02:36:24.546Z,14.40
2019-03-29T02:38:55.850Z,15.33
2019-03-29T02:41:23.199Z,13.93
2019-03-29T02:43:51.747Z,15.53
2019-03-29T02:46:20.312Z,14.53
2019-03-29T02:48:49.086Z,13.33
2019-03-29T02:51:17.576Z,13.90
2019-03-29T02:53:46.117Z,15.47
2019-03-29T02:56:14.619Z,14.90
2019-03-29T02:58:43.079Z,13.77
2019-03-29T03:01:11.607Z,14.23
2019-03-29T03:03:40.101Z,13.10
2019-03-29T03:06:08.579Z,15.03
2019-03-29T03:08:37.073Z,15.53
2019-03-29T03:11:05.899Z,15.77
2019-03-29T03:13:34.621Z,15.13
2019-03-29T03:16:03.261Z,15.20
2019-03-29T03:18:31.791Z,17.90
2019-03-29T03:21:00.271Z,17.20
2019-03-29T03:23:28.759Z,18.77
2019-03-29T03:25:57.231Z,16.50
2019-03-29T03:28:25.789Z,18.13
2019-03-29T03:30:54.256Z,17.00
2019-03-29T03:33:22.740Z,18.77
2019-03-29T03:35:51.194Z,19.83
2019-03-29T03:38:19.682Z,17.53
2019-03-29T03:40:48.133Z,17.33
2019-03-29T03:43:16.610Z,19.73
2019-03-29T03:45:45.339Z,20.47
2019-03-29T03:48:13.820Z,19.77
2019-03-29T03:50:42.722Z,21.03
2019-03-29T03:53:11.930Z,22.30
2019-03-29T03:55:41.814Z,24.77
2019-03-29T03:58:11.720Z,24.43
2019-03-29T04:00:54.868Z,20.73
2019-03-29T04:03:24.038Z,22.63
2019-03-29T04:05:52.729Z,24.67
2019-03-29T04:08:21.385Z,22.70
2019-03-29T04:10:49.970Z,20.63
2019-03-29T04:13:18.509Z,23.40
2019-03-29T04:15:47.131Z,24.20
2019-03-29T04:18:16.546Z,24.90
2019-03-29T04:20:45.347Z,24.40
2019-03-29T04:23:13.840Z,26.23
2019-03-29T04:25:42.378Z,25.37
2019-03-29T04:28:10.873Z,24.87
2019-03-29T04:30:39.396Z,25.13
2019-03-29T04:33:11.069Z,27.60
2019-03-29T04:35:38.177Z,25.93
2019-03-29T04:38:06.703Z,23.37
2019-03-29T04:40:35.325Z,24.60
2019-03-29T04:43:03.790Z,24.57
2019-03-29T04:45:32.358Z,26.10
2019-03-29T04:48:00.825Z,24.43
2019-03-29T04:50:29.308Z,24.30
2019-03-29T04:52:58.057Z,26.50
2019-03-29T04:55:26.603Z,25.23
2019-03-29T04:57:55.083Z,26.57
2019-03-29T05:00:23.572Z,26.63
2019-03-29T05:02:52.104Z,25.10
2019-03-29T05:05:20.601Z,23.40
2019-03-29T05:07:49.062Z,25.30
2019-03-29T05:10:21.466Z,27.20
2019-03-29T05:12:47.748Z,26.63
2019-03-29T05:15:16.373Z,26.33
2019-03-29T05:17:44.853Z,27.33
2019-03-29T05:20:13.450Z,25.47
2019-03-29T05:22:41.944Z,26.03
2019-03-29T05:25:10.560Z,28.93
2019-03-29T05:27:39.040Z,23.73
2019-03-29T05:30:08.376Z,27.47
2019-03-29T05:32:36.920Z,25.77
2019-03-29T05:35:06.624Z,24.87
2019-03-29T05:37:35.121Z,26.40
2019-03-29T05:40:04.505Z,28.57
2019-03-29T05:42:33.324Z,27.77
2019-03-29T05:45:01.792Z,27.90
2019-03-29T05:47:30.594Z,28.77
2019-03-29T05:49:59.503Z,28.00
2019-03-29T05:52:28.018Z,30.83
2019-03-29T05:54:56.479Z,30.27
2019-03-29T05:57:24.964Z,29.80
2019-03-29T05:59:53.505Z,28.93
2019-03-29T06:02:22.299Z,29.27
2019-03-29T06:04:50.793Z,33.10
2019-03-29T06:07:19.255Z,31.03
2019-03-29T06:09:47.725Z,30.63
2019-03-29T06:12:16.543Z,29.97
2019-03-29T06:14:45.007Z,30.87
2019-03-29T06:17:13.811Z,31.13
2019-03-29T06:19:42.261Z,29.07
2019-03-29T06:22:10.722Z,33.50
2019-03-29T06:24:39.213Z,31.20
2019-03-29T06:27:07.702Z,32.07
2019-03-29T06:29:36.196Z,32.40
2019-03-29T06:32:04.655Z,31.43
2019-03-29T06:34:33.172Z,31.27
2019-03-29T06:37:01.927Z,30.70
2019-03-29T06:39:31.005Z,33.23
2019-03-29T06:41:59.480Z,30.73
2019-03-29T06:44:27.959Z,33.93
2019-03-29T06:46:56.423Z,31.73
2019-03-29T06:49:24.911Z,32.17
2019-03-29T06:51:53.372Z,30.53
2019-03-29T06:54:21.842Z,32.00
2019-03-29T06:56:50.372Z,28.90
2019-03-29T06:59:18.848Z,28.63
2019-03-29T07:01:47.393Z,29.43
2019-03-29T07:04:15.847Z,30.30
2019-03-29T07:06:44.335Z,26.73
2019-03-29T07:09:12.821Z,25.57
2019-03-29T07:11:41.280Z,27.73
2019-03-29T07:14:09.788Z,25.07
2019-03-29T07:16:38.248Z,27.60
2019-03-29T07:19:06.700Z,25.70
2019-03-29T07:21:35.169Z,21.57
2019-03-29T07:24:03.631Z,24.20
2019-03-29T07:26:32.097Z,24.13
2019-03-29T07:29:00.576Z,23.50
2019-03-29T07:31:29.083Z,22.93
2019-03-29T07:33:57.543Z,20.03
2019-03-29T07:36:25.996Z,18.37
2019-03-29T07:38:54.479Z,19.50
2019-03-29T07:41:31.787Z,19.50
2019-03-29T07:43:53.148Z,18.83
2019-03-29T07:46:21.642Z,19.70
2019-03-29T07:48:50.103Z,16.43
2019-03-29T07:51:18.586Z,17.57
2019-03-29T07:53:47.047Z,16.80
2019-03-29T07:56:15.531Z,16.57
2019-03-29T07:58:44.267Z,15.37
2019-03-29T08:01:12.786Z,16.70
2019-03-29T08:03:41.285Z,15.30
2019-03-29T08:06:09.764Z,13.93
2019-03-29T08:08:38.227Z,14.50
2019-03-29T08:11:07.029Z,13.97
2019-03-29T08:13:35.520Z,12.70
2019-03-29T08:16:06.599Z,13.27
2019-03-29T08:18:34.423Z,12.93
2019-03-29T08:21:03.239Z,13.97
2019-03-29T08:23:31.709Z,13.23
2019-03-29T08:26:00.188Z,13.57
2019-03-29T08:28:28.637Z,13.63
2019-03-29T08:30:57.109Z,13.20
2019-03-29T08:33:25.577Z,16.97
2019-03-29T08:35:54.053Z,14.23
2019-03-29T08:38:22.518Z,15.80
2019-03-29T08:40:50.985Z,13.80
2019-03-29T08:43:19.530Z,14.23
2019-03-29T08:45:48.002Z,13.70
2019-03-29T08:48:16.545Z,14.80
2019-03-29T08:50:45.065Z,16.17
2019-03-29T08:53:13.543Z,16.00
2019-03-29T08:55:45.881Z,15.57
2019-03-29T08:58:12.521Z,16.23
2019-03-29T09:00:41.014Z,17.00
2019-03-29T09:03:09.488Z,16.77
2019-03-29T09:05:39.313Z,17.90
2019-03-29T09:08:08.001Z,17.40
2019-03-29T09:10:36.534Z,18.80
2019-03-29T09:13:05.167Z,18.53
2019-03-29T09:15:33.646Z,18.90
2019-03-29T09:18:02.389Z,20.20
2019-03-29T09:20:34.185Z,19.47
2019-03-29T09:23:01.405Z,18.20
2019-03-29T09:25:29.856Z,19.20
2019-03-29T09:27:58.679Z,18.23
2019-03-29T09:30:27.392Z,19.20
2019-03-29T09:32:55.886Z,18.10
2019-03-29T09:35:24.354Z,16.83
2019-03-29T09:37:56.288Z,17.70
2019-03-29T09:40:23.089Z,17.90
2019-03-29T09:43:06.145Z,16.27
2019-03-29T09:45:22.095Z,15.63
2019-03-29T09:47:50.592Z,15.73
2019-03-29T09:50:21.323Z,16.33
2019-03-29T09:52:51.404Z,14.53
2019-03-29T09:55:19.717Z,14.30
2019-03-29T09:57:48.556Z,14.40
2019-03-29T10:00:22.965Z,13.93
2019-03-29T10:02:49.907Z,12.83
2019-03-29T10:05:20.240Z,11.33
2019-03-29T10:07:49.041Z,12.80
2019-03-29T10:10:17.659Z,13.13
2019-03-29T10:12:46.125Z,16.03
2019-03-29T10:15:14.643Z,12.37
2019-03-29T10:17:43.139Z,13.63
2019-03-29T10:20:11.944Z,11.93
2019-03-29T10:22:40.458Z,10.00
2019-03-29T10:25:19.300Z,9.87
2019-03-29T10:27:39.974Z,11.57
2019-03-29T10:30:09.593Z,11.50
2019-03-29T10:32:38.143Z,12.10
2019-03-29T10:35:07.561Z,10.73
2019-03-29T10:37:36.034Z,11.47
2019-03-29T10:40:06.638Z,11.83
2019-03-29T10:42:35.105Z,13.50
2019-03-29T10:45:03.813Z,12.10
2019-03-29T10:47:43.257Z,11.77
2019-03-29T10:50:02.582Z,13.40
2019-03-29T10:52:31.039Z,12.57
2019-03-29T10:54:59.541Z,12.67
2019-03-29T10:57:27.995Z,10.37
2019-03-29T10:59:56.470Z,11.40
2019-03-29T11:02:24.952Z,11.10
2019-03-29T11:04:53.411Z,10.73
2019-03-29T11:07:22.143Z,11.60
2019-03-29T11:09:50.621Z,11.83
2019-03-29T11:12:19.189Z,12.27
2019-03-29T11:14:47.653Z,11.10
2019-03-29T11:17:16.129Z,11.37
2019-03-29T11:19:44.593Z,11.87
2019-03-29T11:22:13.055Z,11.20
2019-03-29T11:24:41.795Z,10.80
2019-03-29T11:27:10.255Z,10.57
2019-03-29T11:29:38.753Z,11.63
2019-03-29T11:32:07.361Z,11.13
2019-03-29T11:34:35.856Z,12.97
2019-03-29T11:37:04.319Z,10.83
2019-03-29T11:39:32.817Z,11.13
2019-03-29T11:42:03.511Z,10.20
2019-03-29T11:44:31.608Z,10.07
2019-03-29T11:47:00.074Z,10.53
2019-03-29T11:49:28.550Z,13.30
2019-03-29T11:51:57.018Z,13.03
2019-03-29T11:54:25.553Z,11.97
2019-03-29T11:56:54.031Z,12.23
2019-03-29T11:59:22.905Z,12.00
2019-03-29T12:01:51.390Z,12.20
2019-03-29T12:04:19.843Z,12.40
2019-03-29T12:06:48.337Z,10.50
2019-03-29T12:09:17.121Z,13.17
2019-03-29T12:11:45.920Z,12.60
2019-03-29T12:14:14.461Z,12.03
2019-03-29T12:16:43.305Z,12.20
2019-03-29T12:19:11.769Z,11.47
2019-03-29T12:21:40.563Z,12.07
2019-03-29T12:24:09.044Z,10.87
2019-03-29T12:26:37.935Z,12.30
2019-03-29T12:29:06.473Z,12.27
2019-03-29T12:31:34.966Z,12.77
2019-03-29T12:34:03.687Z,12.23
2019-03-29T12:36:32.151Z,14.13
2019-03-29T12:39:00.625Z,12.63
2019-03-29T12:41:29.091Z,12.90
2019-03-29T12:43:57.556Z,12.87
2019-03-29T12:46:26.042Z,13.10
2019-03-29T12:48:54.513Z,13.33
2019-03-29T12:51:23.268Z,12.97
2019-03-29T12:53:52.059Z,10.73
2019-03-29T12:56:20.601Z,12.17
2019-03-29T12:58:49.326Z,11.93
2019-03-29T13:01:17.866Z,12.27
2019-03-29T13:03:46.340Z,13.70
2019-03-29T13:06:14.829Z,12.87
2019-03-29T13:08:43.287Z,13.30
2019-03-29T13:11:11.770Z,15.70
2019-03-29T13:13:40.521Z,12.87
2019-03-29T13:16:09.320Z,13.93
2019-03-29T13:18:37.803Z,12.30
2019-03-29T13:21:06.589Z,13.43
2019-03-29T13:23:35.139Z,13.37
2019-03-29T13:26:03.666Z,13.03
2019-03-29T13:28:32.530Z,12.40
2019-03-29T13:31:01.068Z,12.70
2019-03-29T13:33:29.556Z,13.30
2019-03-29T13:35:58.401Z,11.33
2019-03-29T13:38:26.869Z,13.17
2019-03-29T13:40:55.352Z,11.20
2019-03-29T13:43:23.800Z,11.70
2019-03-29T13:45:52.268Z,15.33
2019-03-29T13:48:20.741Z,16.47
2019-03-29T13:50:49.221Z,14.43
2019-03-29T13:53:17.692Z,12.77
2019-03-29T13:55:46.523Z,11.73
2019-03-29T13:58:15.004Z,11.37
2019-03-29T14:00:43.501Z,12.73
2019-03-29T14:03:12.046Z,12.57
2019-03-29T14:05:40.527Z,13.70
2019-03-29T14:08:08.982Z,13.10
2019-03-29T14:10:37.471Z,12.13
2019-03-29T14:13:05.935Z,11.57
2019-03-29T14:15:34.428Z,11.73
2019-03-29T14:18:02.888Z,11.30
2019-03-29T14:20:33.092Z,13.10
2019-03-29T14:23:02.897Z,19.03
2019-03-29T14:25:31.363Z,11.47
2019-03-29T14:27:59.862Z,15.33
2019-03-29T14:30:28.309Z,11.27
2019-03-29T14:32:56.789Z,12.47
2019-03-29T14:35:25.542Z,14.13
2019-03-29T14:37:54.003Z,13.00
2019-03-29T14:40:22.545Z,13.73
2019-03-29T14:42:51.039Z,13.63
2019-03-29T14:45:19.568Z,14.30
2019-03-29T14:47:48.029Z,12.07
2019-03-29T14:50:16.952Z,11.27
2019-03-29T14:52:45.435Z,12.80
2019-03-29T14:55:13.967Z,13.43
2019-03-29T14:57:42.445Z,12.70
2019-03-29T15:00:12.851Z,16.47
2019-03-29T15:02:41.381Z,14.00
2019-03-29T15:05:09.946Z,12.87
2019-03-29T15:07:38.937Z,12.97
2019-03-29T15:10:09.044Z,19.67
2019-03-29T15:12:37.507Z,13.03
2019-03-29T15:15:07.413Z,11.97
2019-03-29T15:17:35.975Z,11.60
2019-03-29T15:20:05.966Z,12.57
2019-03-29T15:22:34.428Z,12.43
2019-03-29T15:25:02.990Z,15.83
2019-03-29T15:27:31.487Z,12.53
2019-03-29T15:29:59.963Z,12.07
2019-03-29T15:32:28.419Z,14.60
2019-03-29T15:34:56.903Z,12.13
2019-03-29T15:37:25.370Z,13.33
2019-03-29T15:39:53.903Z,12.70
2019-03-29T15:42:22.415Z,18.27
2019-03-29T15:44:50.929Z,13.40
2019-03-29T15:47:19.416Z,15.03
2019-03-29T15:49:55.808Z,23.67
2019-03-29T15:52:18.081Z,12.93
2019-03-29T15:54:46.541Z,13.67
2019-03-29T15:57:15.040Z,12.70
2019-03-29T15:59:43.573Z,14.87
2019-03-29T16:02:12.046Z,12.53
2019-03-29T16:04:40.530Z,13.30
2019-03-29T16:07:09.001Z,13.80
2019-03-29T16:09:37.726Z,12.30
2019-03-29T16:12:06.466Z,14.20
2019-03-29T16:14:34.946Z,29.70
2019-03-29T16:17:03.411Z,17.67
2019-03-29T16:19:31.909Z,15.10
2019-03-29T16:22:00.353Z,23.60
2019-03-29T16:24:28.819Z,12.37
2019-03-29T16:26:57.299Z,14.47
2019-03-29T16:29:25.793Z,15.57
2019-03-29T16:31:54.333Z,14.47
2019-03-29T16:34:22.899Z,14.40
2019-03-29T16:36:51.361Z,14.90
2019-03-29T16:39:19.812Z,14.73
2019-03-29T16:41:48.303Z,13.23
2019-03-29T16:44:17.040Z,14.53
2019-03-29T16:46:45.518Z,17.30
2019-03-29T16:49:14.018Z,13.87
2019-03-29T16:51:42.549Z,14.50
2019-03-29T16:54:11.006Z,17.80
2019-03-29T16:56:39.500Z,14.43
2019-03-29T16:59:07.946Z,14.00
2019-03-29T17:01:36.432Z,15.40
2019-03-29T17:04:05.263Z,15.73
2019-03-29T17:06:34.005Z,18.30
2019-03-29T17:09:03.635Z,15.10
2019-03-29T17:11:32.126Z,13.20
2019-03-29T17:14:00.867Z,14.90
2019-03-29T17:16:30.562Z,14.47
2019-03-29T17:18:59.438Z,15.80
2019-03-29T17:21:27.899Z,13.30
2019-03-29T17:23:56.743Z,23.10
2019-03-29T17:26:25.210Z,16.80
2019-03-29T17:28:53.702Z,18.50
2019-03-29T17:31:22.145Z,14.30
2019-03-29T17:33:50.640Z,14.43
2019-03-29T17:36:19.109Z,16.87
2019-03-29T17:38:48.132Z,19.83
2019-03-29T17:41:16.735Z,17.90
2019-03-29T17:43:45.239Z,16.17
2019-03-29T17:46:16.772Z,15.93
2019-03-29T17:48:43.882Z,18.83
2019-03-29T17:51:12.708Z,18.20
2019-03-29T17:53:41.186Z,22.70
2019-03-29T17:56:09.683Z,20.57
2019-03-29T17:58:38.147Z,14.77
2019-03-29T18:01:06.607Z,15.50
2019-03-29T18:03:35.100Z,16.47
2019-03-29T18:06:03.736Z,14.37
2019-03-29T18:08:32.258Z,15.53
2019-03-29T18:11:00.811Z,18.17
2019-03-29T18:13:29.262Z,14.90
2019-03-29T18:15:57.737Z,14.23
2019-03-29T18:18:26.225Z,15.50
2019-03-29T18:20:54.677Z,16.50
2019-03-29T18:23:24.923Z,14.77
2019-03-29T18:25:53.817Z,13.50
2019-03-29T18:28:22.306Z,14.80
2019-03-29T18:30:50.762Z,15.80
2019-03-29T18:33:20.531Z,16.27
2019-03-29T18:35:49.011Z,15.63
2019-03-29T18:38:17.477Z,18.07
2019-03-29T18:40:45.985Z,18.33
2019-03-29T18:43:14.533Z,17.00
2019-03-29T18:45:43.025Z,17.83
2019-03-29T18:48:11.500Z,16.80
2019-03-29T18:50:40.069Z,16.70
2019-03-29T18:53:08.602Z,17.27
2019-03-29T18:55:37.091Z,16.00
2019-03-29T18:58:05.966Z,13.37
2019-03-29T19:00:35.354Z,13.40
2019-03-29T19:03:04.177Z,15.90
2019-03-29T19:05:32.819Z,16.07
2019-03-29T19:08:01.350Z,14.47
2019-03-29T19:10:29.959Z,16.07
2019-03-29T19:12:58.527Z,16.17
2019-03-29T19:15:27.381Z,19.23
2019-03-29T19:17:55.849Z,16.43
2019-03-29T19:20:27.660Z,15.33
2019-03-29T19:22:54.595Z,17.27
2019-03-29T19:25:23.145Z,18.33
2019-03-29T19:27:51.646Z,18.67
2019-03-29T19:30:20.377Z,20.97
2019-03-29T19:32:48.855Z,20.83
2019-03-29T19:35:17.701Z,16.93
2019-03-29T19:37:46.174Z,20.20
2019-03-29T19:40:14.771Z,16.73
2019-03-29T19:42:43.267Z,16.23
2019-03-29T19:45:12.269Z,16.50
2019-03-29T19:47:41.063Z,16.07
2019-03-29T19:50:09.875Z,17.67
2019-03-29T19:52:38.352Z,15.30
2019-03-29T19:55:07.082Z,14.40
2019-03-29T19:57:35.571Z,14.70
2019-03-29T20:00:09.799Z,16.93
2019-03-29T20:02:38.313Z,15.93
2019-03-29T20:05:09.912Z,16.07
2019-03-29T20:07:38.663Z,15.37
2019-03-29T20:10:08.461Z,16.17
2019-03-29T20:12:36.999Z,16.33
2019-03-29T20:15:08.336Z,15.10
2019-03-29T20:17:36.825Z,17.37
2019-03-29T20:20:08.339Z,15.77
2019-03-29T20:22:36.822Z,16.83
2019-03-29T20:25:06.154Z,16.27
2019-03-29T20:27:34.731Z,18.80
2019-03-29T20:30:03.893Z,17.73
2019-03-29T20:32:32.397Z,17.17
2019-03-29T20:35:00.872Z,17.53
2019-03-29T20:37:29.347Z,17.57
2019-03-29T20:39:57.967Z,17.50
2019-03-29T20:42:26.420Z,16.93
2019-03-29T20:44:54.898Z,16.20
2019-03-29T20:47:23.368Z,16.10
2019-03-29T20:49:52.224Z,15.60
2019-03-29T20:52:20.695Z,15.63
2019-03-29T20:54:49.179Z,17.80
2019-03-29T20:57:17.659Z,17.33
2019-03-29T20:59:46.147Z,18.73
2019-03-29T21:02:14.601Z,19.63
2019-03-29T21:04:43.092Z,17.57
2019-03-29T21:07:11.569Z,17.33
2019-03-29T21:09:40.039Z,17.30
2019-03-29T21:12:08.519Z,19.57
2019-03-29T21:14:37.000Z,20.17
2019-03-29T21:17:05.479Z,18.27
2019-03-29T21:19:33.967Z,19.30
2019-03-29T21:22:02.495Z,17.40
2019-03-29T21:24:30.979Z,19.47
2019-03-29T21:26:59.461Z,20.40
2019-03-29T21:29:27.949Z,18.77
2019-03-29T21:31:56.407Z,19.20
2019-03-29T21:34:25.251Z,21.00
2019-03-29T21:36:53.715Z,19.33
2019-03-29T21:39:22.258Z,22.80
2019-03-29T21:41:50.997Z,20.47
2019-03-29T21:44:19.499Z,20.00
2019-03-29T21:46:47.977Z,20.00
2019-03-29T21:49:16.434Z,21.17
2019-03-29T21:51:45.552Z,20.67
2019-03-29T21:54:14.337Z,20.00
2019-03-29T21:56:42.807Z,19.83
2019-03-29T21:59:11.379Z,21.37
2019-03-29T22:01:39.843Z,21.30
2019-03-29T22:04:08.320Z,22.67
2019-03-29T22:06:37.151Z,23.00
2019-03-29T22:09:07.658Z,21.30
2019-03-29T22:11:36.139Z,25.00
2019-03-29T22:14:05.058Z,21.47
2019-03-29T22:16:33.566Z,23.83
2019-03-29T22:19:02.035Z,21.67
2019-03-29T22:21:30.513Z,21.60
2019-03-29T22:23:58.989Z,21.70
2019-03-29T22:26:27.502Z,20.07
2019-03-29T22:28:56.005Z,18.20
2019-03-29T22:31:24.730Z,22.97
2019-03-29T22:33:53.533Z,18.53
2019-03-29T22:36:21.995Z,20.73
2019-03-29T22:38:50.463Z,21.63
2019-03-29T22:41:18.940Z,22.60
2019-03-29T22:43:47.438Z,21.50
2019-03-29T22:46:15.905Z,22.47
2019-03-29T22:48:52.265Z,24.33
2019-03-29T22:51:14.590Z,24.47
2019-03-29T22:53:43.062Z,23.10
2019-03-29T22:56:11.793Z,23.87
2019-03-29T22:58:40.275Z,23.77
2019-03-29T23:01:08.934Z,20.43
2019-03-29T23:03:37.386Z,21.87
2019-03-29T23:06:05.933Z,23.43
2019-03-29T23:08:34.399Z,21.27
2019-03-29T23:11:02.974Z,20.30
2019-03-29T23:13:31.801Z,19.63
2019-03-29T23:16:00.287Z,20.33
2019-03-29T23:18:28.748Z,21.10
2019-03-29T23:20:57.231Z,19.53
2019-03-29T23:23:25.699Z,21.37
2019-03-29T23:25:54.183Z,20.50
2019-03-29T23:28:22.629Z,21.03
2019-03-29T23:30:51.121Z,20.60
2019-03-29T23:33:19.583Z,22.40
2019-03-29T23:35:48.036Z,22.50
2019-03-29T23:38:16.531Z,22.00
2019-03-29T23:40:44.982Z,22.67
2019-03-29T23:43:13.463Z,22.73
2019-03-29T23:45:41.947Z,23.63
2019-03-29T23:48:10.426Z,24.33
2019-03-29T23:50:38.911Z,23.67
2019-03-29T23:53:07.375Z,21.87
2019-03-29T23:55:36.115Z,21.97
2019-03-29T23:58:04.573Z,22.80
